sensor_id;sensor_type;location;lat;lon;timestamp;P1;durP1;ratioP1;P2;durP2;ratioP2
16640;SDS011;8434;47.990;7.880;2023-11-21T00:00:48;3.33;;;1.10;;
16640;SDS011;8434;47.990;7.880;2023-11-21T00:03:34;2.77;;;1.37;;
16640;SDS011;8434;47.990;7.880;2023-11-21T00:06:19;3.97;;;1.10;;
16640;SDS011;8434;47.990;7.880;2023-11-21T00:09:05;4.27;;;1.07;;
16640;SDS011;8434;47.990;7.880;2023-11-21T00:11:53;1.83;;;0.90;;
16640;SDS011;8434;47.990;7.880;2023-11-21T00:14:39;4.10;;;1.23;;
16640;SDS011;8434;47.990;7.880;2023-11-21T00:17:24;4.13;;;1.23;;
16640;SDS011;8434;47.990;7.880;2023-11-21T00:20:10;5.03;;;1.67;;
16640;SDS011;8434;47.990;7.880;2023-11-21T00:22:56;2.63;;;1.10;;
16640;SDS011;8434;47.990;7.880;2023-11-21T00:25:43;4.60;;;1.90;;
16640;SDS011;8434;47.990;7.880;2023-11-21T00:28:29;3.57;;;1.30;;
16640;SDS011;8434;47.990;7.880;2023-11-21T00:31:15;2.53;;;0.97;;
16640;SDS011;8434;47.990;7.880;2023-11-21T00:34:01;1.83;;;0.90;;
16640;SDS011;8434;47.990;7.880;2023-11-21T00:36:47;3.47;;;1.50;;
16640;SDS011;8434;47.990;7.880;2023-11-21T00:39:32;5.10;;;1.10;;
16640;SDS011;8434;47.990;7.880;2023-11-21T00:42:19;1.40;;;0.73;;
16640;SDS011;8434;47.990;7.880;2023-11-21T00:45:07;6.43;;;0.90;;
16640;SDS011;8434;47.990;7.880;2023-11-21T00:47:53;2.83;;;0.73;;
16640;SDS011;8434;47.990;7.880;2023-11-21T00:50:38;3.27;;;0.90;;
16640;SDS011;8434;47.990;7.880;2023-11-21T00:53:24;2.10;;;1.30;;
16640;SDS011;8434;47.990;7.880;2023-11-21T00:56:09;2.97;;;0.80;;
16640;SDS011;8434;47.990;7.880;2023-11-21T00:58:55;2.73;;;0.50;;
16640;SDS011;8434;47.990;7.880;2023-11-21T01:01:42;4.30;;;1.20;;
16640;SDS011;8434;47.990;7.880;2023-11-21T01:04:27;2.63;;;0.63;;
16640;SDS011;8434;47.990;7.880;2023-11-21T01:07:12;1.73;;;0.60;;
16640;SDS011;8434;47.990;7.880;2023-11-21T01:09:58;1.10;;;0.73;;
16640;SDS011;8434;47.990;7.880;2023-11-21T01:12:44;4.00;;;1.37;;
16640;SDS011;8434;47.990;7.880;2023-11-21T01:15:30;3.87;;;0.90;;
16640;SDS011;8434;47.990;7.880;2023-11-21T01:18:20;1.13;;;0.53;;
16640;SDS011;8434;47.990;7.880;2023-11-21T01:21:06;1.10;;;0.77;;
16640;SDS011;8434;47.990;7.880;2023-11-21T01:23:53;1.50;;;0.57;;
16640;SDS011;8434;47.990;7.880;2023-11-21T01:26:39;4.10;;;0.67;;
16640;SDS011;8434;47.990;7.880;2023-11-21T01:29:24;0.73;;;0.50;;
16640;SDS011;8434;47.990;7.880;2023-11-21T01:32:10;3.60;;;0.70;;
16640;SDS011;8434;47.990;7.880;2023-11-21T01:34:56;1.73;;;1.33;;
16640;SDS011;8434;47.990;7.880;2023-11-21T01:37:44;1.27;;;0.60;;
16640;SDS011;8434;47.990;7.880;2023-11-21T01:40:30;2.23;;;1.13;;
16640;SDS011;8434;47.990;7.880;2023-11-21T01:43:15;0.97;;;0.50;;
16640;SDS011;8434;47.990;7.880;2023-11-21T01:46:01;1.23;;;0.60;;
16640;SDS011;8434;47.990;7.880;2023-11-21T01:48:48;1.57;;;0.57;;
16640;SDS011;8434;47.990;7.880;2023-11-21T01:51:37;1.37;;;0.50;;
16640;SDS011;8434;47.990;7.880;2023-11-21T01:54:22;1.63;;;0.53;;
16640;SDS011;8434;47.990;7.880;2023-11-21T01:57:08;0.70;;;0.70;;
16640;SDS011;8434;47.990;7.880;2023-11-21T01:59:54;0.83;;;0.50;;
16640;SDS011;8434;47.990;7.880;2023-11-21T02:02:39;1.23;;;0.70;;
16640;SDS011;8434;47.990;7.880;2023-11-21T02:05:25;1.20;;;0.47;;
16640;SDS011;8434;47.990;7.880;2023-11-21T02:08:11;3.80;;;0.97;;
16640;SDS011;8434;47.990;7.880;2023-11-21T02:10:58;1.40;;;0.50;;
16640;SDS011;8434;47.990;7.880;2023-11-21T02:13:43;0.50;;;0.50;;
16640;SDS011;8434;47.990;7.880;2023-11-21T02:16:29;1.17;;;0.60;;
16640;SDS011;8434;47.990;7.880;2023-11-21T02:19:18;2.13;;;0.50;;
16640;SDS011;8434;47.990;7.880;2023-11-21T02:22:04;1.27;;;0.50;;
16640;SDS011;8434;47.990;7.880;2023-11-21T02:24:52;1.50;;;0.33;;
16640;SDS011;8434;47.990;7.880;2023-11-21T02:27:37;1.93;;;0.50;;
16640;SDS011;8434;47.990;7.880;2023-11-21T02:30:23;1.57;;;0.50;;
16640;SDS011;8434;47.990;7.880;2023-11-21T02:33:10;0.73;;;0.40;;
16640;SDS011;8434;47.990;7.880;2023-11-21T02:35:56;1.97;;;0.70;;
16640;SDS011;8434;47.990;7.880;2023-11-21T02:38:42;2.03;;;0.60;;
16640;SDS011;8434;47.990;7.880;2023-11-21T02:41:28;1.87;;;0.57;;
16640;SDS011;8434;47.990;7.880;2023-11-21T02:44:14;0.87;;;0.50;;
16640;SDS011;8434;47.990;7.880;2023-11-21T02:46:59;1.43;;;0.50;;
16640;SDS011;8434;47.990;7.880;2023-11-21T02:49:45;2.53;;;1.23;;
16640;SDS011;8434;47.990;7.880;2023-11-21T02:52:31;2.37;;;0.60;;
16640;SDS011;8434;47.990;7.880;2023-11-21T02:55:16;1.27;;;0.50;;
16640;SDS011;8434;47.990;7.880;2023-11-21T02:58:03;1.20;;;0.97;;
16640;SDS011;8434;47.990;7.880;2023-11-21T03:00:50;3.43;;;1.20;;
16640;SDS011;8434;47.990;7.880;2023-11-21T03:03:36;0.90;;;0.50;;
16640;SDS011;8434;47.990;7.880;2023-11-21T03:06:24;2.37;;;0.50;;
16640;SDS011;8434;47.990;7.880;2023-11-21T03:09:09;0.60;;;0.50;;
16640;SDS011;8434;47.990;7.880;2023-11-21T03:11:55;4.07;;;0.60;;
16640;SDS011;8434;47.990;7.880;2023-11-21T03:14:43;0.97;;;0.70;;
16640;SDS011;8434;47.990;7.880;2023-11-21T03:17:28;1.47;;;0.50;;
16640;SDS011;8434;47.990;7.880;2023-11-21T03:20:14;1.73;;;0.70;;
16640;SDS011;8434;47.990;7.880;2023-11-21T03:23:00;1.97;;;0.90;;
16640;SDS011;8434;47.990;7.880;2023-11-21T03:25:46;0.80;;;0.80;;
16640;SDS011;8434;47.990;7.880;2023-11-21T03:28:31;1.87;;;1.03;;
16640;SDS011;8434;47.990;7.880;2023-11-21T03:31:18;2.60;;;0.97;;
16640;SDS011;8434;47.990;7.880;2023-11-21T03:34:03;0.67;;;0.40;;
16640;SDS011;8434;47.990;7.880;2023-11-21T03:36:48;0.83;;;0.70;;
16640;SDS011;8434;47.990;7.880;2023-11-21T03:39:36;1.27;;;0.77;;
16640;SDS011;8434;47.990;7.880;2023-11-21T03:42:22;1.33;;;0.40;;
16640;SDS011;8434;47.990;7.880;2023-11-21T03:45:08;1.60;;;0.60;;
16640;SDS011;8434;47.990;7.880;2023-11-21T03:47:55;2.50;;;0.60;;
16640;SDS011;8434;47.990;7.880;2023-11-21T03:50:40;0.97;;;0.40;;
16640;SDS011;8434;47.990;7.880;2023-11-21T03:53:25;1.23;;;0.50;;
16640;SDS011;8434;47.990;7.880;2023-11-21T03:56:11;1.70;;;0.73;;
16640;SDS011;8434;47.990;7.880;2023-11-21T03:58:57;0.60;;;0.40;;
16640;SDS011;8434;47.990;7.880;2023-11-21T04:01:43;1.17;;;0.40;;
16640;SDS011;8434;47.990;7.880;2023-11-21T04:04:29;3.07;;;0.60;;
16640;SDS011;8434;47.990;7.880;2023-11-21T04:07:15;2.13;;;0.33;;
16640;SDS011;8434;47.990;7.880;2023-11-21T04:10:00;0.67;;;0.50;;
16640;SDS011;8434;47.990;7.880;2023-11-21T04:12:46;0.70;;;0.40;;
16640;SDS011;8434;47.990;7.880;2023-11-21T04:15:31;0.67;;;0.50;;
16640;SDS011;8434;47.990;7.880;2023-11-21T04:18:17;1.03;;;0.40;;
16640;SDS011;8434;47.990;7.880;2023-11-21T04:21:04;5.20;;;1.27;;
16640;SDS011;8434;47.990;7.880;2023-11-21T04:23:49;0.50;;;0.50;;
16640;SDS011;8434;47.990;7.880;2023-11-21T04:26:35;5.20;;;0.93;;
16640;SDS011;8434;47.990;7.880;2023-11-21T04:29:20;0.57;;;0.57;;
16640;SDS011;8434;47.990;7.880;2023-11-21T04:32:06;2.73;;;0.60;;
16640;SDS011;8434;47.990;7.880;2023-11-21T04:34:52;1.13;;;0.63;;
16640;SDS011;8434;47.990;7.880;2023-11-21T04:37:38;1.43;;;0.60;;
16640;SDS011;8434;47.990;7.880;2023-11-21T04:40:25;2.07;;;0.50;;
16640;SDS011;8434;47.990;7.880;2023-11-21T04:43:11;1.43;;;0.57;;
16640;SDS011;8434;47.990;7.880;2023-11-21T04:45:56;1.23;;;0.50;;
16640;SDS011;8434;47.990;7.880;2023-11-21T04:48:42;1.13;;;0.40;;
16640;SDS011;8434;47.990;7.880;2023-11-21T04:51:27;2.10;;;0.47;;
16640;SDS011;8434;47.990;7.880;2023-11-21T04:54:14;1.57;;;0.37;;
16640;SDS011;8434;47.990;7.880;2023-11-21T04:56:59;0.67;;;0.50;;
16640;SDS011;8434;47.990;7.880;2023-11-21T04:59:45;4.47;;;1.10;;
16640;SDS011;8434;47.990;7.880;2023-11-21T05:02:30;0.80;;;0.60;;
16640;SDS011;8434;47.990;7.880;2023-11-21T05:05:16;1.57;;;0.50;;
16640;SDS011;8434;47.990;7.880;2023-11-21T05:08:01;1.90;;;0.57;;
16640;SDS011;8434;47.990;7.880;2023-11-21T05:10:48;2.30;;;0.67;;
16640;SDS011;8434;47.990;7.880;2023-11-21T05:13:35;3.43;;;0.93;;
16640;SDS011;8434;47.990;7.880;2023-11-21T05:16:21;1.97;;;1.10;;
16640;SDS011;8434;47.990;7.880;2023-11-21T05:19:06;1.87;;;0.80;;
16640;SDS011;8434;47.990;7.880;2023-11-21T05:21:53;2.40;;;1.00;;
16640;SDS011;8434;47.990;7.880;2023-11-21T05:24:38;1.80;;;0.77;;
16640;SDS011;8434;47.990;7.880;2023-11-21T05:27:25;1.87;;;0.80;;
16640;SDS011;8434;47.990;7.880;2023-11-21T05:30:11;1.27;;;0.60;;
16640;SDS011;8434;47.990;7.880;2023-11-21T05:32:57;4.20;;;1.23;;
16640;SDS011;8434;47.990;7.880;2023-11-21T05:35:42;0.70;;;0.60;;
16640;SDS011;8434;47.990;7.880;2023-11-21T05:38:27;1.23;;;0.70;;
16640;SDS011;8434;47.990;7.880;2023-11-21T05:41:13;0.77;;;0.70;;
16640;SDS011;8434;47.990;7.880;2023-11-21T05:44:00;1.90;;;0.73;;
16640;SDS011;8434;47.990;7.880;2023-11-21T05:46:45;1.63;;;1.00;;
16640;SDS011;8434;47.990;7.880;2023-11-21T05:49:31;1.63;;;0.90;;
16640;SDS011;8434;47.990;7.880;2023-11-21T05:52:17;1.53;;;1.43;;
16640;SDS011;8434;47.990;7.880;2023-11-21T05:55:02;1.97;;;1.07;;
16640;SDS011;8434;47.990;7.880;2023-11-21T05:57:49;0.93;;;0.80;;
16640;SDS011;8434;47.990;7.880;2023-11-21T06:00:37;1.37;;;0.80;;
16640;SDS011;8434;47.990;7.880;2023-11-21T06:03:22;2.83;;;0.90;;
16640;SDS011;8434;47.990;7.880;2023-11-21T06:06:08;1.27;;;1.00;;
16640;SDS011;8434;47.990;7.880;2023-11-21T06:08:53;1.13;;;1.00;;
16640;SDS011;8434;47.990;7.880;2023-11-21T06:11:39;1.23;;;1.07;;
16640;SDS011;8434;47.990;7.880;2023-11-21T06:14:24;1.07;;;0.87;;
16640;SDS011;8434;47.990;7.880;2023-11-21T06:17:11;3.93;;;1.27;;
16640;SDS011;8434;47.990;7.880;2023-11-21T06:19:57;2.70;;;1.10;;
16640;SDS011;8434;47.990;7.880;2023-11-21T06:22:43;2.70;;;1.30;;
16640;SDS011;8434;47.990;7.880;2023-11-21T06:25:28;1.10;;;1.00;;
16640;SDS011;8434;47.990;7.880;2023-11-21T06:28:13;1.10;;;0.97;;
16640;SDS011;8434;47.990;7.880;2023-11-21T06:31:01;1.17;;;1.00;;
16640;SDS011;8434;47.990;7.880;2023-11-21T06:33:50;2.97;;;1.90;;
16640;SDS011;8434;47.990;7.880;2023-11-21T06:36:36;1.77;;;1.20;;
16640;SDS011;8434;47.990;7.880;2023-11-21T06:39:21;1.87;;;1.30;;
16640;SDS011;8434;47.990;7.880;2023-11-21T06:42:07;2.10;;;1.10;;
16640;SDS011;8434;47.990;7.880;2023-11-21T06:44:52;3.83;;;1.10;;
16640;SDS011;8434;47.990;7.880;2023-11-21T06:47:41;2.67;;;1.20;;
16640;SDS011;8434;47.990;7.880;2023-11-21T06:50:28;1.30;;;1.20;;
16640;SDS011;8434;47.990;7.880;2023-11-21T06:53:13;2.00;;;1.43;;
16640;SDS011;8434;47.990;7.880;2023-11-21T06:55:58;2.07;;;1.50;;
16640;SDS011;8434;47.990;7.880;2023-11-21T06:58:44;3.73;;;2.37;;
16640;SDS011;8434;47.990;7.880;2023-11-21T07:01:30;2.13;;;1.20;;
16640;SDS011;8434;47.990;7.880;2023-11-21T07:04:18;1.43;;;1.10;;
16640;SDS011;8434;47.990;7.880;2023-11-21T07:07:06;1.17;;;0.97;;
16640;SDS011;8434;47.990;7.880;2023-11-21T07:09:52;1.53;;;1.00;;
16640;SDS011;8434;47.990;7.880;2023-11-21T07:12:37;4.47;;;2.10;;
16640;SDS011;8434;47.990;7.880;2023-11-21T07:15:24;2.13;;;1.23;;
16640;SDS011;8434;47.990;7.880;2023-11-21T07:18:10;1.80;;;1.20;;
16640;SDS011;8434;47.990;7.880;2023-11-21T07:20:56;1.93;;;1.23;;
16640;SDS011;8434;47.990;7.880;2023-11-21T07:23:44;3.13;;;0.90;;
16640;SDS011;8434;47.990;7.880;2023-11-21T07:26:30;6.80;;;3.60;;
16640;SDS011;8434;47.990;7.880;2023-11-21T07:29:16;2.80;;;1.67;;
16640;SDS011;8434;47.990;7.880;2023-11-21T07:32:02;1.00;;;0.60;;
16640;SDS011;8434;47.990;7.880;2023-11-21T07:34:47;0.70;;;0.63;;
16640;SDS011;8434;47.990;7.880;2023-11-21T07:37:32;0.77;;;0.77;;
16640;SDS011;8434;47.990;7.880;2023-11-21T07:40:24;3.00;;;0.80;;
16640;SDS011;8434;47.990;7.880;2023-11-21T07:43:10;1.03;;;0.80;;
16640;SDS011;8434;47.990;7.880;2023-11-21T07:45:56;1.03;;;0.60;;
16640;SDS011;8434;47.990;7.880;2023-11-21T07:48:41;1.20;;;0.80;;
16640;SDS011;8434;47.990;7.880;2023-11-21T07:51:27;1.50;;;0.90;;
16640;SDS011;8434;47.990;7.880;2023-11-21T07:54:13;3.47;;;0.90;;
16640;SDS011;8434;47.990;7.880;2023-11-21T07:57:01;5.03;;;1.20;;
16640;SDS011;8434;47.990;7.880;2023-11-21T07:59:48;1.13;;;1.03;;
16640;SDS011;8434;47.990;7.880;2023-11-21T08:02:34;2.63;;;1.00;;
16640;SDS011;8434;47.990;7.880;2023-11-21T08:05:19;2.23;;;1.20;;
16640;SDS011;8434;47.990;7.880;2023-11-21T08:08:05;1.00;;;0.90;;
16640;SDS011;8434;47.990;7.880;2023-11-21T08:10:50;1.30;;;0.90;;
16640;SDS011;8434;47.990;7.880;2023-11-21T08:13:42;1.70;;;1.07;;
16640;SDS011;8434;47.990;7.880;2023-11-21T08:16:27;0.80;;;0.80;;
16640;SDS011;8434;47.990;7.880;2023-11-21T08:19:13;1.20;;;0.70;;
16640;SDS011;8434;47.990;7.880;2023-11-21T08:22:00;3.47;;;1.43;;
16640;SDS011;8434;47.990;7.880;2023-11-21T08:24:45;2.80;;;1.90;;
16640;SDS011;8434;47.990;7.880;2023-11-21T08:27:31;1.83;;;1.33;;
16640;SDS011;8434;47.990;7.880;2023-11-21T08:30:18;3.10;;;1.57;;
16640;SDS011;8434;47.990;7.880;2023-11-21T08:33:04;2.33;;;1.80;;
16640;SDS011;8434;47.990;7.880;2023-11-21T08:35:50;1.83;;;1.43;;
16640;SDS011;8434;47.990;7.880;2023-11-21T08:38:35;3.30;;;1.77;;
16640;SDS011;8434;47.990;7.880;2023-11-21T08:41:22;2.00;;;1.63;;
16640;SDS011;8434;47.990;7.880;2023-11-21T08:44:07;3.10;;;1.80;;
16640;SDS011;8434;47.990;7.880;2023-11-21T08:46:54;4.80;;;2.20;;
16640;SDS011;8434;47.990;7.880;2023-11-21T08:49:40;3.07;;;1.70;;
16640;SDS011;8434;47.990;7.880;2023-11-21T08:52:25;5.20;;;2.43;;
16640;SDS011;8434;47.990;7.880;2023-11-21T08:55:11;3.57;;;1.77;;
16640;SDS011;8434;47.990;7.880;2023-11-21T08:57:58;3.00;;;1.77;;
16640;SDS011;8434;47.990;7.880;2023-11-21T09:00:43;2.27;;;1.70;;
16640;SDS011;8434;47.990;7.880;2023-11-21T09:03:31;4.67;;;1.90;;
16640;SDS011;8434;47.990;7.880;2023-11-21T09:06:18;2.77;;;0.97;;
16640;SDS011;8434;47.990;7.880;2023-11-21T09:09:03;2.23;;;1.33;;
16640;SDS011;8434;47.990;7.880;2023-11-21T09:11:50;1.77;;;1.30;;
16640;SDS011;8434;47.990;7.880;2023-11-21T09:14:35;2.40;;;2.00;;
16640;SDS011;8434;47.990;7.880;2023-11-21T09:17:20;2.57;;;1.30;;
16640;SDS011;8434;47.990;7.880;2023-11-21T09:20:07;1.67;;;1.37;;
16640;SDS011;8434;47.990;7.880;2023-11-21T09:22:54;3.83;;;1.40;;
16640;SDS011;8434;47.990;7.880;2023-11-21T09:25:39;2.90;;;1.20;;
16640;SDS011;8434;47.990;7.880;2023-11-21T09:28:25;2.13;;;1.20;;
16640;SDS011;8434;47.990;7.880;2023-11-21T09:31:11;2.10;;;1.10;;
16640;SDS011;8434;47.990;7.880;2023-11-21T09:33:56;1.97;;;1.10;;
16640;SDS011;8434;47.990;7.880;2023-11-21T09:36:45;2.07;;;1.20;;
16640;SDS011;8434;47.990;7.880;2023-11-21T09:39:30;2.27;;;1.27;;
16640;SDS011;8434;47.990;7.880;2023-11-21T09:42:23;1.10;;;1.00;;
16640;SDS011;8434;47.990;7.880;2023-11-21T09:45:13;1.13;;;0.97;;
16640;SDS011;8434;47.990;7.880;2023-11-21T09:48:01;1.37;;;1.00;;
16640;SDS011;8434;47.990;7.880;2023-11-21T09:50:47;1.40;;;1.00;;
16640;SDS011;8434;47.990;7.880;2023-11-21T09:53:34;1.13;;;0.80;;
16640;SDS011;8434;47.990;7.880;2023-11-21T09:56:20;3.20;;;0.97;;
16640;SDS011;8434;47.990;7.880;2023-11-21T09:59:07;1.00;;;1.00;;
16640;SDS011;8434;47.990;7.880;2023-11-21T10:01:56;0.97;;;0.80;;
16640;SDS011;8434;47.990;7.880;2023-11-21T10:04:42;1.40;;;1.20;;
16640;SDS011;8434;47.990;7.880;2023-11-21T10:07:28;1.63;;;1.20;;
16640;SDS011;8434;47.990;7.880;2023-11-21T10:10:15;2.20;;;1.23;;
16640;SDS011;8434;47.990;7.880;2023-11-21T10:13:03;1.73;;;1.03;;
16640;SDS011;8434;47.990;7.880;2023-11-21T10:15:51;1.17;;;1.07;;
16640;SDS011;8434;47.990;7.880;2023-11-21T10:18:37;2.33;;;1.00;;
16640;SDS011;8434;47.990;7.880;2023-11-21T10:21:23;2.17;;;1.00;;
16640;SDS011;8434;47.990;7.880;2023-11-21T10:24:09;1.33;;;1.20;;
16640;SDS011;8434;47.990;7.880;2023-11-21T10:26:58;1.70;;;1.40;;
16640;SDS011;8434;47.990;7.880;2023-11-21T10:29:43;2.70;;;1.37;;
16640;SDS011;8434;47.990;7.880;2023-11-21T10:32:29;1.90;;;1.40;;
16640;SDS011;8434;47.990;7.880;2023-11-21T10:35:16;2.97;;;1.97;;
16640;SDS011;8434;47.990;7.880;2023-11-21T10:38:02;2.83;;;1.30;;
16640;SDS011;8434;47.990;7.880;2023-11-21T10:40:48;1.87;;;1.60;;
16640;SDS011;8434;47.990;7.880;2023-11-21T10:43:34;1.90;;;1.30;;
16640;SDS011;8434;47.990;7.880;2023-11-21T10:46:19;2.07;;;1.87;;
16640;SDS011;8434;47.990;7.880;2023-11-21T10:49:05;2.60;;;1.30;;
16640;SDS011;8434;47.990;7.880;2023-11-21T10:51:50;4.60;;;2.60;;
16640;SDS011;8434;47.990;7.880;2023-11-21T10:54:36;3.73;;;1.47;;
16640;SDS011;8434;47.990;7.880;2023-11-21T10:57:22;1.57;;;1.10;;
16640;SDS011;8434;47.990;7.880;2023-11-21T11:00:10;3.70;;;1.40;;
16640;SDS011;8434;47.990;7.880;2023-11-21T11:02:57;1.87;;;1.30;;
16640;SDS011;8434;47.990;7.880;2023-11-21T11:05:43;2.33;;;1.40;;
16640;SDS011;8434;47.990;7.880;2023-11-21T11:08:35;2.33;;;1.40;;
16640;SDS011;8434;47.990;7.880;2023-11-21T11:11:21;1.50;;;1.00;;
16640;SDS011;8434;47.990;7.880;2023-11-21T11:14:07;2.67;;;1.50;;
16640;SDS011;8434;47.990;7.880;2023-11-21T11:16:55;1.30;;;1.20;;
16640;SDS011;8434;47.990;7.880;2023-11-21T11:19:41;1.20;;;1.10;;
16640;SDS011;8434;47.990;7.880;2023-11-21T11:22:29;2.10;;;1.00;;
16640;SDS011;8434;47.990;7.880;2023-11-21T11:25:25;2.17;;;0.90;;
16640;SDS011;8434;47.990;7.880;2023-11-21T11:28:14;1.33;;;1.00;;
16640;SDS011;8434;47.990;7.880;2023-11-21T11:31:00;1.33;;;1.00;;
16640;SDS011;8434;47.990;7.880;2023-11-21T11:33:52;2.73;;;1.20;;
16640;SDS011;8434;47.990;7.880;2023-11-21T11:36:40;1.77;;;1.13;;
16640;SDS011;8434;47.990;7.880;2023-11-21T11:39:29;2.83;;;1.47;;
16640;SDS011;8434;47.990;7.880;2023-11-21T11:42:16;1.73;;;1.10;;
16640;SDS011;8434;47.990;7.880;2023-11-21T11:45:02;2.00;;;1.53;;
16640;SDS011;8434;47.990;7.880;2023-11-21T11:48:02;3.90;;;2.10;;
16640;SDS011;8434;47.990;7.880;2023-11-21T11:53:59;1.57;;;1.20;;
16640;SDS011;8434;47.990;7.880;2023-11-21T11:56:45;2.13;;;1.63;;
16640;SDS011;8434;47.990;7.880;2023-11-21T11:59:30;1.20;;;1.10;;
16640;SDS011;8434;47.990;7.880;2023-11-21T12:02:36;1.40;;;1.30;;
16640;SDS011;8434;47.990;7.880;2023-11-21T12:05:21;2.03;;;1.60;;
16640;SDS011;8434;47.990;7.880;2023-11-21T12:08:07;2.00;;;1.40;;
16640;SDS011;8434;47.990;7.880;2023-11-21T12:10:54;1.20;;;1.10;;
16640;SDS011;8434;47.990;7.880;2023-11-21T12:13:41;2.50;;;0.97;;
16640;SDS011;8434;47.990;7.880;2023-11-21T12:16:26;1.57;;;1.10;;
16640;SDS011;8434;47.990;7.880;2023-11-21T12:19:12;1.80;;;1.47;;
16640;SDS011;8434;47.990;7.880;2023-11-21T12:21:57;1.40;;;1.20;;
16640;SDS011;8434;47.990;7.880;2023-11-21T12:24:42;1.30;;;1.20;;
16640;SDS011;8434;47.990;7.880;2023-11-21T12:27:29;1.70;;;1.30;;
16640;SDS011;8434;47.990;7.880;2023-11-21T12:30:15;1.97;;;1.50;;
16640;SDS011;8434;47.990;7.880;2023-11-21T12:33:01;1.87;;;1.60;;
16640;SDS011;8434;47.990;7.880;2023-11-21T12:35:46;4.10;;;1.47;;
16640;SDS011;8434;47.990;7.880;2023-11-21T12:38:33;2.23;;;1.90;;
16640;SDS011;8434;47.990;7.880;2023-11-21T12:41:18;1.80;;;1.37;;
16640;SDS011;8434;47.990;7.880;2023-11-21T12:44:11;2.73;;;1.63;;
16640;SDS011;8434;47.990;7.880;2023-11-21T12:46:59;2.73;;;2.00;;
16640;SDS011;8434;47.990;7.880;2023-11-21T12:49:45;3.87;;;2.20;;
16640;SDS011;8434;47.990;7.880;2023-11-21T12:52:31;3.53;;;2.70;;
16640;SDS011;8434;47.990;7.880;2023-11-21T12:55:17;3.17;;;2.20;;
16640;SDS011;8434;47.990;7.880;2023-11-21T12:58:03;3.37;;;2.00;;
16640;SDS011;8434;47.990;7.880;2023-11-21T13:00:54;2.03;;;1.80;;
16640;SDS011;8434;47.990;7.880;2023-11-21T13:03:42;2.67;;;2.13;;
16640;SDS011;8434;47.990;7.880;2023-11-21T13:06:29;3.30;;;2.50;;
16640;SDS011;8434;47.990;7.880;2023-11-21T13:09:22;3.00;;;2.40;;
16640;SDS011;8434;47.990;7.880;2023-11-21T13:12:08;3.30;;;2.77;;
16640;SDS011;8434;47.990;7.880;2023-11-21T13:14:54;5.30;;;2.93;;
16640;SDS011;8434;47.990;7.880;2023-11-21T13:17:41;3.30;;;2.43;;
16640;SDS011;8434;47.990;7.880;2023-11-21T13:20:26;2.87;;;2.20;;
16640;SDS011;8434;47.990;7.880;2023-11-21T13:23:13;5.10;;;2.93;;
16640;SDS011;8434;47.990;7.880;2023-11-21T13:26:00;2.90;;;2.40;;
16640;SDS011;8434;47.990;7.880;2023-11-21T13:28:47;2.70;;;2.00;;
16640;SDS011;8434;47.990;7.880;2023-11-21T13:31:33;2.03;;;1.83;;
16640;SDS011;8434;47.990;7.880;2023-11-21T13:34:22;3.53;;;3.07;;
16640;SDS011;8434;47.990;7.880;2023-11-21T13:37:11;1.60;;;1.50;;
16640;SDS011;8434;47.990;7.880;2023-11-21T13:39:57;3.23;;;2.50;;
16640;SDS011;8434;47.990;7.880;2023-11-21T13:42:42;2.00;;;1.80;;
16640;SDS011;8434;47.990;7.880;2023-11-21T13:45:28;2.07;;;1.87;;
16640;SDS011;8434;47.990;7.880;2023-11-21T13:48:14;2.77;;;1.50;;
16640;SDS011;8434;47.990;7.880;2023-11-21T13:51:04;3.07;;;1.50;;
16640;SDS011;8434;47.990;7.880;2023-11-21T13:53:57;2.00;;;1.50;;
16640;SDS011;8434;47.990;7.880;2023-11-21T13:56:43;2.13;;;1.60;;
16640;SDS011;8434;47.990;7.880;2023-11-21T13:59:29;2.97;;;2.03;;
16640;SDS011;8434;47.990;7.880;2023-11-21T14:02:16;4.50;;;1.83;;
16640;SDS011;8434;47.990;7.880;2023-11-21T14:05:02;4.63;;;2.20;;
16640;SDS011;8434;47.990;7.880;2023-11-21T14:07:54;2.67;;;2.30;;
16640;SDS011;8434;47.990;7.880;2023-11-21T14:10:45;1.43;;;1.30;;
16640;SDS011;8434;47.990;7.880;2023-11-21T14:13:34;2.03;;;1.80;;
16640;SDS011;8434;47.990;7.880;2023-11-21T14:16:20;1.60;;;1.50;;
16640;SDS011;8434;47.990;7.880;2023-11-21T14:19:05;1.50;;;1.40;;
16640;SDS011;8434;47.990;7.880;2023-11-21T14:21:59;2.50;;;1.80;;
16640;SDS011;8434;47.990;7.880;2023-11-21T14:24:46;2.10;;;1.90;;
16640;SDS011;8434;47.990;7.880;2023-11-21T14:27:34;2.13;;;1.80;;
16640;SDS011;8434;47.990;7.880;2023-11-21T14:30:19;2.63;;;2.03;;
16640;SDS011;8434;47.990;7.880;2023-11-21T14:33:06;1.93;;;1.70;;
16640;SDS011;8434;47.990;7.880;2023-11-21T14:35:52;3.93;;;2.20;;
16640;SDS011;8434;47.990;7.880;2023-11-21T14:38:37;2.97;;;2.27;;
16640;SDS011;8434;47.990;7.880;2023-11-21T14:41:25;3.00;;;2.67;;
16640;SDS011;8434;47.990;7.880;2023-11-21T14:44:12;2.77;;;2.20;;
16640;SDS011;8434;47.990;7.880;2023-11-21T14:46:59;3.20;;;2.43;;
16640;SDS011;8434;47.990;7.880;2023-11-21T14:49:47;7.53;;;2.70;;
16640;SDS011;8434;47.990;7.880;2023-11-21T14:52:40;5.40;;;2.40;;
16640;SDS011;8434;47.990;7.880;2023-11-21T14:55:39;2.90;;;2.17;;
16640;SDS011;8434;47.990;7.880;2023-11-21T14:58:39;3.10;;;2.80;;
16640;SDS011;8434;47.990;7.880;2023-11-21T15:01:24;5.07;;;3.30;;
16640;SDS011;8434;47.990;7.880;2023-11-21T15:04:27;5.57;;;2.93;;
16640;SDS011;8434;47.990;7.880;2023-11-21T15:07:20;4.13;;;3.20;;
16640;SDS011;8434;47.990;7.880;2023-11-21T15:10:06;5.37;;;3.30;;
16640;SDS011;8434;47.990;7.880;2023-11-21T15:12:55;3.47;;;2.63;;
16640;SDS011;8434;47.990;7.880;2023-11-21T15:15:43;3.00;;;2.40;;
16640;SDS011;8434;47.990;7.880;2023-11-21T15:18:28;4.97;;;2.37;;
16640;SDS011;8434;47.990;7.880;2023-11-21T15:21:14;3.17;;;2.60;;
16640;SDS011;8434;47.990;7.880;2023-11-21T15:23:59;3.07;;;2.60;;
16640;SDS011;8434;47.990;7.880;2023-11-21T15:26:45;3.00;;;2.63;;
16640;SDS011;8434;47.990;7.880;2023-11-21T15:29:30;2.53;;;2.23;;
16640;SDS011;8434;47.990;7.880;2023-11-21T15:32:17;3.43;;;2.80;;
16640;SDS011;8434;47.990;7.880;2023-11-21T15:35:02;4.10;;;2.70;;
16640;SDS011;8434;47.990;7.880;2023-11-21T15:37:48;6.43;;;3.87;;
16640;SDS011;8434;47.990;7.880;2023-11-21T15:40:33;4.27;;;3.67;;
16640;SDS011;8434;47.990;7.880;2023-11-21T15:43:19;5.00;;;3.30;;
16640;SDS011;8434;47.990;7.880;2023-11-21T15:46:05;7.07;;;3.57;;
16640;SDS011;8434;47.990;7.880;2023-11-21T15:48:53;5.67;;;2.80;;
16640;SDS011;8434;47.990;7.880;2023-11-21T15:51:39;3.80;;;2.83;;
16640;SDS011;8434;47.990;7.880;2023-11-21T15:54:24;2.80;;;2.60;;
16640;SDS011;8434;47.990;7.880;2023-11-21T15:57:10;3.60;;;2.83;;
16640;SDS011;8434;47.990;7.880;2023-11-21T15:59:56;3.37;;;3.07;;
16640;SDS011;8434;47.990;7.880;2023-11-21T16:02:43;3.77;;;2.97;;
16640;SDS011;8434;47.990;7.880;2023-11-21T16:05:30;2.90;;;2.37;;
16640;SDS011;8434;47.990;7.880;2023-11-21T16:08:16;3.40;;;2.80;;
16640;SDS011;8434;47.990;7.880;2023-11-21T16:11:01;2.80;;;2.50;;
16640;SDS011;8434;47.990;7.880;2023-11-21T16:13:48;2.80;;;2.43;;
16640;SDS011;8434;47.990;7.880;2023-11-21T16:16:33;2.90;;;2.60;;
16640;SDS011;8434;47.990;7.880;2023-11-21T16:19:18;3.63;;;3.30;;
16640;SDS011;8434;47.990;7.880;2023-11-21T16:22:05;3.17;;;2.50;;
16640;SDS011;8434;47.990;7.880;2023-11-21T16:24:50;3.60;;;2.93;;
16640;SDS011;8434;47.990;7.880;2023-11-21T16:27:35;2.27;;;2.00;;
16640;SDS011;8434;47.990;7.880;2023-11-21T16:30:21;2.20;;;2.00;;
16640;SDS011;8434;47.990;7.880;2023-11-21T16:33:07;2.63;;;2.10;;
16640;SDS011;8434;47.990;7.880;2023-11-21T16:35:54;4.00;;;3.17;;
16640;SDS011;8434;47.990;7.880;2023-11-21T16:38:45;4.77;;;3.80;;
16640;SDS011;8434;47.990;7.880;2023-11-21T16:41:31;4.37;;;3.60;;
16640;SDS011;8434;47.990;7.880;2023-11-21T16:44:16;3.37;;;2.90;;
16640;SDS011;8434;47.990;7.880;2023-11-21T16:47:02;3.13;;;2.60;;
16640;SDS011;8434;47.990;7.880;2023-11-21T16:49:49;3.87;;;3.30;;
16640;SDS011;8434;47.990;7.880;2023-11-21T16:52:35;3.30;;;3.00;;
16640;SDS011;8434;47.990;7.880;2023-11-21T16:55:23;3.93;;;2.97;;
16640;SDS011;8434;47.990;7.880;2023-11-21T16:58:09;3.43;;;2.70;;
16640;SDS011;8434;47.990;7.880;2023-11-21T17:00:55;2.97;;;2.63;;